sensor_id;sensor_type;location;lat;lon;timestamp;P1;durP1;ratioP1;P2;durP2;ratioP2
25559;SDS011;13450;49.374;8.584;2023-08-24T00:00:10;4.53;;;2.28;;
25559;SDS011;13450;49.374;8.584;2023-08-24T00:02:36;3.75;;;2.25;;
25559;SDS011;13450;49.374;8.584;2023-08-24T00:05:02;5.63;;;2.03;;
25559;SDS011;13450;49.374;8.584;2023-08-24T00:07:27;4.28;;;2.40;;
25559;SDS011;13450;49.374;8.584;2023-08-24T00:09:53;3.47;;;1.73;;
25559;SDS011;13450;49.374;8.584;2023-08-24T00:12:18;4.53;;;2.38;;
25559;SDS011;13450;49.374;8.584;2023-08-24T00:14:43;4.15;;;2.42;;
25559;SDS011;13450;49.374;8.584;2023-08-24T00:17:09;4.90;;;2.42;;
25559;SDS011;13450;49.374;8.584;2023-08-24T00:19:34;4.15;;;2.03;;
25559;SDS011;13450;49.374;8.584;2023-08-24T00:21:59;4.30;;;2.10;;
25559;SDS011;13450;49.374;8.584;2023-08-24T00:24:24;5.05;;;2.92;;
25559;SDS011;13450;49.374;8.584;2023-08-24T00:26:52;4.28;;;2.35;;
25559;SDS011;13450;49.374;8.584;2023-08-24T00:29:18;5.85;;;2.35;;
25559;SDS011;13450;49.374;8.584;2023-08-24T00:31:43;4.55;;;2.25;;
25559;SDS011;13450;49.374;8.584;2023-08-24T00:34:08;4.30;;;1.88;;
25559;SDS011;13450;49.374;8.584;2023-08-24T00:36:34;3.67;;;1.50;;
25559;SDS011;13450;49.374;8.584;2023-08-24T00:38:59;3.65;;;2.30;;
25559;SDS011;13450;49.374;8.584;2023-08-24T00:41:25;6.22;;;2.88;;
25559;SDS011;13450;49.374;8.584;2023-08-24T00:43:51;5.10;;;2.00;;
25559;SDS011;13450;49.374;8.584;2023-08-24T00:46:16;4.05;;;2.03;;
25559;SDS011;13450;49.374;8.584;2023-08-24T00:48:44;4.20;;;2.33;;
25559;SDS011;13450;49.374;8.584;2023-08-24T00:51:11;4.97;;;1.92;;
25559;SDS011;13450;49.374;8.584;2023-08-24T00:53:37;4.85;;;2.33;;
25559;SDS011;13450;49.374;8.584;2023-08-24T00:56:03;3.00;;;1.75;;
25559;SDS011;13450;49.374;8.584;2023-08-24T00:58:29;4.35;;;2.22;;
25559;SDS011;13450;49.374;8.584;2023-08-24T01:00:56;3.55;;;1.77;;
25559;SDS011;13450;49.374;8.584;2023-08-24T01:03:22;2.85;;;1.80;;
25559;SDS011;13450;49.374;8.584;2023-08-24T01:05:48;3.53;;;1.80;;
25559;SDS011;13450;49.374;8.584;2023-08-24T01:08:14;4.88;;;2.00;;
25559;SDS011;13450;49.374;8.584;2023-08-24T01:13:50;6.33;;;2.40;;
25559;SDS011;13450;49.374;8.584;2023-08-24T01:16:25;4.05;;;2.13;;
25559;SDS011;13450;49.374;8.584;2023-08-24T01:18:56;4.00;;;2.05;;
25559;SDS011;13450;49.374;8.584;2023-08-24T01:21:24;3.47;;;1.60;;
25559;SDS011;13450;49.374;8.584;2023-08-24T01:24:14;3.67;;;1.77;;
25559;SDS011;13450;49.374;8.584;2023-08-24T01:26:49;4.05;;;1.73;;
25559;SDS011;13450;49.374;8.584;2023-08-24T01:29:16;3.25;;;1.60;;
25559;SDS011;13450;49.374;8.584;2023-08-24T01:31:41;3.50;;;2.15;;
25559;SDS011;13450;49.374;8.584;2023-08-24T01:34:07;3.80;;;1.80;;
25559;SDS011;13450;49.374;8.584;2023-08-24T01:36:32;3.50;;;2.08;;
25559;SDS011;13450;49.374;8.584;2023-08-24T01:39:09;4.72;;;1.80;;
25559;SDS011;13450;49.374;8.584;2023-08-24T01:41:38;4.43;;;2.05;;
25559;SDS011;13450;49.374;8.584;2023-08-24T01:44:09;3.45;;;1.73;;
25559;SDS011;13450;49.374;8.584;2023-08-24T01:46:38;3.70;;;2.22;;
25559;SDS011;13450;49.374;8.584;2023-08-24T01:49:04;5.28;;;2.05;;
25559;SDS011;13450;49.374;8.584;2023-08-24T01:51:32;3.45;;;1.90;;
25559;SDS011;13450;49.374;8.584;2023-08-24T01:53:59;4.00;;;2.00;;
25559;SDS011;13450;49.374;8.584;2023-08-24T01:56:25;3.83;;;1.70;;
25559;SDS011;13450;49.374;8.584;2023-08-24T01:58:50;3.17;;;1.60;;
25559;SDS011;13450;49.374;8.584;2023-08-24T02:01:18;4.82;;;2.45;;
25559;SDS011;13450;49.374;8.584;2023-08-24T02:03:43;4.55;;;2.35;;
25559;SDS011;13450;49.374;8.584;2023-08-24T02:06:09;5.03;;;2.60;;
25559;SDS011;13450;49.374;8.584;2023-08-24T02:08:34;5.15;;;2.10;;
25559;SDS011;13450;49.374;8.584;2023-08-24T02:11:00;5.22;;;2.55;;
25559;SDS011;13450;49.374;8.584;2023-08-24T02:13:25;3.55;;;2.08;;
25559;SDS011;13450;49.374;8.584;2023-08-24T02:15:50;4.18;;;2.45;;
25559;SDS011;13450;49.374;8.584;2023-08-24T02:18:16;4.00;;;2.22;;
25559;SDS011;13450;49.374;8.584;2023-08-24T02:20:41;3.90;;;2.25;;
25559;SDS011;13450;49.374;8.584;2023-08-24T02:23:06;5.40;;;2.50;;
25559;SDS011;13450;49.374;8.584;2023-08-24T02:25:32;3.92;;;2.13;;
25559;SDS011;13450;49.374;8.584;2023-08-24T02:27:58;4.82;;;2.60;;
25559;SDS011;13450;49.374;8.584;2023-08-24T02:30:23;3.78;;;2.05;;
25559;SDS011;13450;49.374;8.584;2023-08-24T02:32:49;5.00;;;2.80;;
25559;SDS011;13450;49.374;8.584;2023-08-24T02:35:14;6.10;;;3.10;;
25559;SDS011;13450;49.374;8.584;2023-08-24T02:37:45;5.78;;;2.70;;
25559;SDS011;13450;49.374;8.584;2023-08-24T02:40:10;6.47;;;3.00;;
25559;SDS011;13450;49.374;8.584;2023-08-24T02:42:36;4.57;;;2.88;;
25559;SDS011;13450;49.374;8.584;2023-08-24T02:45:02;4.72;;;2.40;;
25559;SDS011;13450;49.374;8.584;2023-08-24T02:47:27;6.88;;;2.83;;
25559;SDS011;13450;49.374;8.584;2023-08-24T02:49:52;4.30;;;2.60;;
25559;SDS011;13450;49.374;8.584;2023-08-24T02:52:21;5.32;;;2.50;;
25559;SDS011;13450;49.374;8.584;2023-08-24T02:54:46;5.38;;;2.78;;
25559;SDS011;13450;49.374;8.584;2023-08-24T02:57:12;4.30;;;2.63;;
25559;SDS011;13450;49.374;8.584;2023-08-24T02:59:37;5.95;;;2.97;;
25559;SDS011;13450;49.374;8.584;2023-08-24T03:02:04;7.00;;;2.90;;
25559;SDS011;13450;49.374;8.584;2023-08-24T03:04:29;4.32;;;2.60;;
25559;SDS011;13450;49.374;8.584;2023-08-24T03:06:54;5.43;;;2.92;;
25559;SDS011;13450;49.374;8.584;2023-08-24T03:09:20;3.83;;;2.20;;
25559;SDS011;13450;49.374;8.584;2023-08-24T03:11:47;3.72;;;2.35;;
25559;SDS011;13450;49.374;8.584;2023-08-24T03:14:13;4.35;;;2.70;;
25559;SDS011;13450;49.374;8.584;2023-08-24T03:16:38;7.47;;;3.30;;
25559;SDS011;13450;49.374;8.584;2023-08-24T03:19:06;4.43;;;2.50;;
25559;SDS011;13450;49.374;8.584;2023-08-24T03:21:32;4.78;;;2.45;;
25559;SDS011;13450;49.374;8.584;2023-08-24T03:23:57;4.72;;;2.25;;
25559;SDS011;13450;49.374;8.584;2023-08-24T03:26:23;3.55;;;2.00;;
25559;SDS011;13450;49.374;8.584;2023-08-24T03:28:48;6.13;;;2.65;;
25559;SDS011;13450;49.374;8.584;2023-08-24T03:31:14;4.90;;;2.10;;
25559;SDS011;13450;49.374;8.584;2023-08-24T03:33:39;4.45;;;2.25;;
25559;SDS011;13450;49.374;8.584;2023-08-24T03:36:05;5.32;;;2.90;;
25559;SDS011;13450;49.374;8.584;2023-08-24T03:41:52;5.63;;;2.60;;
25559;SDS011;13450;49.374;8.584;2023-08-24T03:44:22;6.75;;;2.80;;
25559;SDS011;13450;49.374;8.584;2023-08-24T03:46:48;8.68;;;2.95;;
25559;SDS011;13450;49.374;8.584;2023-08-24T03:49:13;7.80;;;3.47;;
25559;SDS011;13450;49.374;8.584;2023-08-24T03:51:38;4.95;;;3.17;;
25559;SDS011;13450;49.374;8.584;2023-08-24T03:54:07;5.75;;;3.38;;
25559;SDS011;13450;49.374;8.584;2023-08-24T03:56:32;5.95;;;3.40;;
25559;SDS011;13450;49.374;8.584;2023-08-24T03:59:00;5.28;;;3.22;;
25559;SDS011;13450;49.374;8.584;2023-08-24T04:01:27;3.85;;;2.55;;
25559;SDS011;13450;49.374;8.584;2023-08-24T04:03:53;4.82;;;2.80;;
25559;SDS011;13450;49.374;8.584;2023-08-24T04:06:18;6.28;;;3.53;;
25559;SDS011;13450;49.374;8.584;2023-08-24T04:08:46;6.13;;;3.63;;
25559;SDS011;13450;49.374;8.584;2023-08-24T04:11:11;6.13;;;3.55;;
25559;SDS011;13450;49.374;8.584;2023-08-24T04:13:40;5.95;;;3.17;;
25559;SDS011;13450;49.374;8.584;2023-08-24T04:16:05;6.75;;;3.03;;
25559;SDS011;13450;49.374;8.584;2023-08-24T04:18:32;5.03;;;3.00;;
25559;SDS011;13450;49.374;8.584;2023-08-24T04:21:00;4.53;;;2.72;;
25559;SDS011;13450;49.374;8.584;2023-08-24T04:23:26;5.95;;;3.25;;
25559;SDS011;13450;49.374;8.584;2023-08-24T04:25:51;4.93;;;2.35;;
25559;SDS011;13450;49.374;8.584;2023-08-24T04:28:19;5.63;;;2.80;;
25559;SDS011;13450;49.374;8.584;2023-08-24T04:30:51;8.60;;;3.88;;
25559;SDS011;13450;49.374;8.584;2023-08-24T04:33:23;5.53;;;3.00;;
25559;SDS011;13450;49.374;8.584;2023-08-24T04:35:51;9.02;;;3.60;;
25559;SDS011;13450;49.374;8.584;2023-08-24T04:38:18;6.45;;;3.22;;
25559;SDS011;13450;49.374;8.584;2023-08-24T04:40:48;5.32;;;3.20;;
25559;SDS011;13450;49.374;8.584;2023-08-24T04:43:17;8.75;;;3.33;;
25559;SDS011;13450;49.374;8.584;2023-08-24T04:45:47;8.18;;;3.00;;
25559;SDS011;13450;49.374;8.584;2023-08-24T04:48:13;7.60;;;3.80;;
25559;SDS011;13450;49.374;8.584;2023-08-24T04:50:39;4.72;;;3.00;;
25559;SDS011;13450;49.374;8.584;2023-08-24T04:53:04;8.77;;;3.83;;
25559;SDS011;13450;49.374;8.584;2023-08-24T04:55:30;5.40;;;3.10;;
25559;SDS011;13450;49.374;8.584;2023-08-24T04:57:55;8.15;;;3.78;;
25559;SDS011;13450;49.374;8.584;2023-08-24T05:00:20;6.03;;;3.85;;
25559;SDS011;13450;49.374;8.584;2023-08-24T05:02:46;6.30;;;3.63;;
25559;SDS011;13450;49.374;8.584;2023-08-24T05:05:11;6.13;;;3.72;;
25559;SDS011;13450;49.374;8.584;2023-08-24T05:07:39;4.95;;;3.50;;
25559;SDS011;13450;49.374;8.584;2023-08-24T05:10:06;10.85;;;3.00;;
25559;SDS011;13450;49.374;8.584;2023-08-24T05:12:32;6.95;;;3.28;;
25559;SDS011;13450;49.374;8.584;2023-08-24T05:15:00;6.97;;;3.58;;
25559;SDS011;13450;49.374;8.584;2023-08-24T05:17:29;7.13;;;3.53;;
25559;SDS011;13450;49.374;8.584;2023-08-24T05:19:56;6.78;;;3.88;;
25559;SDS011;13450;49.374;8.584;2023-08-24T05:22:22;5.97;;;3.60;;
25559;SDS011;13450;49.374;8.584;2023-08-24T05:24:47;5.80;;;3.60;;
25559;SDS011;13450;49.374;8.584;2023-08-24T05:27:13;6.45;;;2.88;;
25559;SDS011;13450;49.374;8.584;2023-08-24T05:29:38;6.45;;;3.58;;
25559;SDS011;13450;49.374;8.584;2023-08-24T05:32:09;6.07;;;3.10;;
25559;SDS011;13450;49.374;8.584;2023-08-24T06:35:46;5.70;;;3.35;;
25559;SDS011;13450;49.374;8.584;2023-08-24T06:38:11;5.78;;;2.83;;
25559;SDS011;13450;49.374;8.584;2023-08-24T06:40:36;5.53;;;3.17;;
25559;SDS011;13450;49.374;8.584;2023-08-24T06:43:02;6.40;;;3.13;;
25559;SDS011;13450;49.374;8.584;2023-08-24T06:45:30;4.97;;;2.83;;
25559;SDS011;13450;49.374;8.584;2023-08-24T06:47:55;6.27;;;3.10;;
25559;SDS011;13450;49.374;8.584;2023-08-24T06:50:20;5.47;;;3.50;;
25559;SDS011;13450;49.374;8.584;2023-08-24T06:52:46;8.07;;;3.17;;
25559;SDS011;13450;49.374;8.584;2023-08-24T06:55:11;7.30;;;3.38;;
25559;SDS011;13450;49.374;8.584;2023-08-24T06:57:37;4.13;;;2.63;;
25559;SDS011;13450;49.374;8.584;2023-08-24T07:00:03;6.78;;;3.60;;
25559;SDS011;13450;49.374;8.584;2023-08-24T07:02:32;5.80;;;3.45;;
25559;SDS011;13450;49.374;8.584;2023-08-24T07:04:58;7.30;;;3.42;;
25559;SDS011;13450;49.374;8.584;2023-08-24T07:07:24;8.32;;;3.92;;
25559;SDS011;13450;49.374;8.584;2023-08-24T07:09:50;8.63;;;3.17;;
25559;SDS011;13450;49.374;8.584;2023-08-24T07:12:15;5.10;;;3.03;;
25559;SDS011;13450;49.374;8.584;2023-08-24T07:14:41;6.65;;;3.70;;
25559;SDS011;13450;49.374;8.584;2023-08-24T07:17:08;6.78;;;3.90;;
25559;SDS011;13450;49.374;8.584;2023-08-24T07:19:36;7.07;;;3.45;;
25559;SDS011;13450;49.374;8.584;2023-08-24T07:22:01;7.55;;;3.67;;
25559;SDS011;13450;49.374;8.584;2023-08-24T07:24:26;6.18;;;3.33;;
25559;SDS011;13450;49.374;8.584;2023-08-24T07:26:54;6.50;;;3.53;;
25559;SDS011;13450;49.374;8.584;2023-08-24T07:29:20;6.47;;;3.90;;
25559;SDS011;13450;49.374;8.584;2023-08-24T07:31:45;9.15;;;3.17;;
25559;SDS011;13450;49.374;8.584;2023-08-24T07:34:10;5.95;;;3.15;;
25559;SDS011;13450;49.374;8.584;2023-08-24T07:36:36;3.88;;;2.50;;
25559;SDS011;13450;49.374;8.584;2023-08-24T07:39:01;5.55;;;3.00;;
25559;SDS011;13450;49.374;8.584;2023-08-24T07:41:26;7.30;;;3.42;;
25559;SDS011;13450;49.374;8.584;2023-08-24T07:43:52;7.35;;;2.85;;
25559;SDS011;13450;49.374;8.584;2023-08-24T07:46:17;4.53;;;2.70;;
25559;SDS011;13450;49.374;8.584;2023-08-24T07:48:42;6.88;;;2.97;;
25559;SDS011;13450;49.374;8.584;2023-08-24T07:51:08;10.57;;;3.00;;
25559;SDS011;13450;49.374;8.584;2023-08-24T07:53:33;5.20;;;2.72;;
25559;SDS011;13450;49.374;8.584;2023-08-24T07:56:01;4.60;;;2.80;;
25559;SDS011;13450;49.374;8.584;2023-08-24T07:58:27;4.70;;;2.47;;
25559;SDS011;13450;49.374;8.584;2023-08-24T08:00:52;9.40;;;3.13;;
25559;SDS011;13450;49.374;8.584;2023-08-24T08:03:21;5.40;;;2.50;;
25559;SDS011;13450;49.374;8.584;2023-08-24T08:05:49;4.03;;;2.40;;
25559;SDS011;13450;49.374;8.584;2023-08-24T08:08:14;6.45;;;2.85;;
25559;SDS011;13450;49.374;8.584;2023-08-24T08:10:40;5.70;;;3.17;;
25559;SDS011;13450;49.374;8.584;2023-08-24T08:13:06;14.90;;;3.50;;
25559;SDS011;13450;49.374;8.584;2023-08-24T08:15:32;5.78;;;2.72;;
25559;SDS011;13450;49.374;8.584;2023-08-24T08:17:58;4.45;;;2.70;;
25559;SDS011;13450;49.374;8.584;2023-08-24T08:20:23;3.97;;;2.38;;
25559;SDS011;13450;49.374;8.584;2023-08-24T08:22:49;5.30;;;2.90;;
25559;SDS011;13450;49.374;8.584;2023-08-24T08:25:15;5.30;;;2.53;;
25559;SDS011;13450;49.374;8.584;2023-08-24T08:27:42;8.82;;;3.30;;
25559;SDS011;13450;49.374;8.584;2023-08-24T08:30:08;6.20;;;3.10;;
25559;SDS011;13450;49.374;8.584;2023-08-24T08:32:36;7.72;;;3.00;;
25559;SDS011;13450;49.374;8.584;2023-08-24T08:35:02;4.50;;;2.60;;
25559;SDS011;13450;49.374;8.584;2023-08-24T08:37:30;5.60;;;2.80;;
25559;SDS011;13450;49.374;8.584;2023-08-24T08:39:58;5.93;;;2.58;;
25559;SDS011;13450;49.374;8.584;2023-08-24T08:42:23;6.60;;;3.10;;
25559;SDS011;13450;49.374;8.584;2023-08-24T08:44:49;4.18;;;2.60;;
25559;SDS011;13450;49.374;8.584;2023-08-24T08:47:15;4.03;;;2.30;;
25559;SDS011;13450;49.374;8.584;2023-08-24T08:49:41;5.55;;;2.20;;
25559;SDS011;13450;49.374;8.584;2023-08-24T08:52:08;4.75;;;2.50;;
25559;SDS011;13450;49.374;8.584;2023-08-24T08:54:34;3.28;;;2.00;;
25559;SDS011;13450;49.374;8.584;2023-08-24T08:57:00;7.47;;;2.65;;
25559;SDS011;13450;49.374;8.584;2023-08-24T08:59:27;6.03;;;2.55;;
25559;SDS011;13450;49.374;8.584;2023-08-24T09:01:55;3.83;;;2.10;;
25559;SDS011;13450;49.374;8.584;2023-08-24T09:04:24;4.72;;;2.15;;
25559;SDS011;13450;49.374;8.584;2023-08-24T09:06:52;3.85;;;1.92;;
25559;SDS011;13450;49.374;8.584;2023-08-24T09:09:17;4.32;;;2.60;;
25559;SDS011;13450;49.374;8.584;2023-08-24T09:11:43;3.88;;;2.10;;
25559;SDS011;13450;49.374;8.584;2023-08-24T09:14:12;5.93;;;2.20;;
25559;SDS011;13450;49.374;8.584;2023-08-24T09:16:37;3.25;;;1.77;;
25559;SDS011;13450;49.374;8.584;2023-08-24T09:19:05;5.80;;;2.40;;
25559;SDS011;13450;49.374;8.584;2023-08-24T09:21:36;6.20;;;2.05;;
25559;SDS011;13450;49.374;8.584;2023-08-24T09:24:05;3.78;;;1.90;;
25559;SDS011;13450;49.374;8.584;2023-08-24T09:26:31;2.95;;;1.60;;
25559;SDS011;13450;49.374;8.584;2023-08-24T09:28:59;3.95;;;1.77;;
25559;SDS011;13450;49.374;8.584;2023-08-24T09:31:35;4.57;;;1.50;;
25559;SDS011;13450;49.374;8.584;2023-08-24T09:34:04;5.18;;;1.77;;
25559;SDS011;13450;49.374;8.584;2023-08-24T09:36:31;3.78;;;1.58;;
25559;SDS011;13450;49.374;8.584;2023-08-24T09:38:58;5.18;;;1.80;;
25559;SDS011;13450;49.374;8.584;2023-08-24T09:41:36;4.47;;;1.80;;
25559;SDS011;13450;49.374;8.584;2023-08-24T09:44:05;3.10;;;1.92;;
25559;SDS011;13450;49.374;8.584;2023-08-24T09:46:37;3.20;;;1.70;;
25559;SDS011;13450;49.374;8.584;2023-08-24T09:49:06;4.15;;;1.70;;
25559;SDS011;13450;49.374;8.584;2023-08-24T09:51:33;4.25;;;1.60;;
25559;SDS011;13450;49.374;8.584;2023-08-24T09:54:02;4.50;;;1.70;;
25559;SDS011;13450;49.374;8.584;2023-08-24T09:56:31;3.22;;;1.70;;
25559;SDS011;13450;49.374;8.584;2023-08-24T09:59:00;5.20;;;1.70;;
25559;SDS011;13450;49.374;8.584;2023-08-24T10:01:42;4.65;;;1.75;;
25559;SDS011;13450;49.374;8.584;2023-08-24T10:04:09;4.47;;;1.70;;
25559;SDS011;13450;49.374;8.584;2023-08-24T10:09:04;5.00;;;1.80;;
25559;SDS011;13450;49.374;8.584;2023-08-24T10:11:34;3.78;;;1.60;;
25559;SDS011;13450;49.374;8.584;2023-08-24T10:14:05;5.57;;;1.83;;
25559;SDS011;13450;49.374;8.584;2023-08-24T10:16:33;4.57;;;1.70;;
25559;SDS011;13450;49.374;8.584;2023-08-24T10:19:00;4.68;;;1.75;;
25559;SDS011;13450;49.374;8.584;2023-08-24T10:21:30;5.40;;;1.87;;
25559;SDS011;13450;49.374;8.584;2023-08-24T10:23:56;2.97;;;1.80;;
25559;SDS011;13450;49.374;8.584;2023-08-24T10:28:51;4.28;;;1.83;;
25559;SDS011;13450;49.374;8.584;2023-08-24T10:31:17;3.60;;;2.10;;
25559;SDS011;13450;49.374;8.584;2023-08-24T10:33:46;2.78;;;1.65;;
25559;SDS011;13450;49.374;8.584;2023-08-24T10:36:12;3.55;;;1.90;;
25559;SDS011;13450;49.374;8.584;2023-08-24T10:38:42;4.35;;;1.73;;
25559;SDS011;13450;49.374;8.584;2023-08-24T10:41:08;5.35;;;1.98;;
25559;SDS011;13450;49.374;8.584;2023-08-24T10:43:38;5.43;;;2.17;;
25559;SDS011;13450;49.374;8.584;2023-08-24T10:46:11;5.75;;;2.30;;
25559;SDS011;13450;49.374;8.584;2023-08-24T10:53:44;5.00;;;1.95;;
25559;SDS011;13450;49.374;8.584;2023-08-24T10:56:14;4.18;;;2.00;;
25559;SDS011;13450;49.374;8.584;2023-08-24T10:58:42;3.15;;;1.60;;
25559;SDS011;13450;49.374;8.584;2023-08-24T11:01:19;5.30;;;1.83;;
25559;SDS011;13450;49.374;8.584;2023-08-24T11:04:05;3.80;;;1.80;;
25559;SDS011;13450;49.374;8.584;2023-08-24T11:09:07;6.07;;;1.73;;
25559;SDS011;13450;49.374;8.584;2023-08-24T11:11:40;5.20;;;1.70;;
25559;SDS011;13450;49.374;8.584;2023-08-24T11:16:42;4.47;;;1.83;;
25559;SDS011;13450;49.374;8.584;2023-08-24T11:19:10;3.15;;;1.77;;
25559;SDS011;13450;49.374;8.584;2023-08-24T11:21:37;5.40;;;1.75;;
25559;SDS011;13450;49.374;8.584;2023-08-24T11:24:07;4.10;;;1.65;;
25559;SDS011;13450;49.374;8.584;2023-08-24T11:26:34;2.97;;;1.58;;
25559;SDS011;13450;49.374;8.584;2023-08-24T11:29:00;4.55;;;1.95;;
25559;SDS011;13450;49.374;8.584;2023-08-24T11:31:29;3.08;;;1.70;;
25559;SDS011;13450;49.374;8.584;2023-08-24T11:33:55;3.78;;;1.80;;
25559;SDS011;13450;49.374;8.584;2023-08-24T11:36:21;5.63;;;3.10;;
25559;SDS011;13450;49.374;8.584;2023-08-24T11:38:48;4.63;;;1.67;;
25559;SDS011;13450;49.374;8.584;2023-08-24T11:41:18;4.18;;;1.70;;
25559;SDS011;13450;49.374;8.584;2023-08-24T11:43:46;2.85;;;1.58;;
25559;SDS011;13450;49.374;8.584;2023-08-24T11:48:40;2.90;;;1.67;;
25559;SDS011;13450;49.374;8.584;2023-08-24T11:51:09;4.07;;;2.03;;
25559;SDS011;13450;49.374;8.584;2023-08-24T11:53:38;2.97;;;1.70;;
25559;SDS011;13450;49.374;8.584;2023-08-24T11:56:07;6.68;;;2.20;;
25559;SDS011;13450;49.374;8.584;2023-08-24T11:58:33;2.97;;;1.80;;
25559;SDS011;13450;49.374;8.584;2023-08-24T12:00:59;5.77;;;1.77;;
25559;SDS011;13450;49.374;8.584;2023-08-24T12:03:25;3.97;;;1.85;;
25559;SDS011;13450;49.374;8.584;2023-08-24T12:05:50;4.88;;;2.40;;
25559;SDS011;13450;49.374;8.584;2023-08-24T12:08:16;2.88;;;1.63;;
25559;SDS011;13450;49.374;8.584;2023-08-24T12:10:44;5.85;;;1.70;;
25559;SDS011;13450;49.374;8.584;2023-08-24T12:13:11;4.68;;;1.98;;
25559;SDS011;13450;49.374;8.584;2023-08-24T12:15:40;3.70;;;1.80;;
25559;SDS011;13450;49.374;8.584;2023-08-24T12:18:10;4.10;;;2.20;;
25559;SDS011;13450;49.374;8.584;2023-08-24T12:20:36;3.75;;;2.00;;
25559;SDS011;13450;49.374;8.584;2023-08-24T12:23:01;8.05;;;2.08;;
25559;SDS011;13450;49.374;8.584;2023-08-24T12:25:27;3.22;;;1.88;;
25559;SDS011;13450;49.374;8.584;2023-08-24T12:27:52;3.75;;;2.00;;
25559;SDS011;13450;49.374;8.584;2023-08-24T12:30:32;4.20;;;1.95;;
25559;SDS011;13450;49.374;8.584;2023-08-24T12:35:50;4.72;;;2.20;;
25559;SDS011;13450;49.374;8.584;2023-08-24T12:38:15;4.50;;;2.00;;
25559;SDS011;13450;49.374;8.584;2023-08-24T12:40:44;3.13;;;1.67;;
25559;SDS011;13450;49.374;8.584;2023-08-24T12:43:12;5.43;;;2.10;;
25559;SDS011;13450;49.374;8.584;2023-08-24T12:45:38;3.88;;;2.08;;
25559;SDS011;13450;49.374;8.584;2023-08-24T12:48:06;3.83;;;1.93;;
25559;SDS011;13450;49.374;8.584;2023-08-24T12:50:35;3.35;;;1.90;;
25559;SDS011;13450;49.374;8.584;2023-08-24T12:53:05;4.00;;;1.95;;
25559;SDS011;13450;49.374;8.584;2023-08-24T12:55:31;5.35;;;1.90;;
25559;SDS011;13450;49.374;8.584;2023-08-24T12:57:59;3.92;;;2.25;;
25559;SDS011;13450;49.374;8.584;2023-08-24T13:00:24;4.20;;;2.00;;
25559;SDS011;13450;49.374;8.584;2023-08-24T13:02:59;4.07;;;1.80;;
25559;SDS011;13450;49.374;8.584;2023-08-24T13:05:24;4.40;;;2.00;;
25559;SDS011;13450;49.374;8.584;2023-08-24T13:07:49;3.72;;;1.92;;
25559;SDS011;13450;49.374;8.584;2023-08-24T13:10:16;4.05;;;2.33;;
25559;SDS011;13450;49.374;8.584;2023-08-24T13:12:41;3.30;;;2.08;;
25559;SDS011;13450;49.374;8.584;2023-08-24T13:15:06;3.42;;;2.03;;
25559;SDS011;13450;49.374;8.584;2023-08-24T13:17:32;3.65;;;1.90;;
25559;SDS011;13450;49.374;8.584;2023-08-24T13:19:58;7.25;;;1.83;;
25559;SDS011;13450;49.374;8.584;2023-08-24T13:22:23;5.18;;;2.33;;
25559;SDS011;13450;49.374;8.584;2023-08-24T13:24:49;3.17;;;2.10;;
25559;SDS011;13450;49.374;8.584;2023-08-24T13:27:14;4.20;;;1.77;;
25559;SDS011;13450;49.374;8.584;2023-08-24T13:29:42;4.97;;;1.80;;
25559;SDS011;13450;49.374;8.584;2023-08-24T13:32:08;3.67;;;2.10;;
25559;SDS011;13450;49.374;8.584;2023-08-24T13:34:33;4.00;;;2.28;;
25559;SDS011;13450;49.374;8.584;2023-08-24T13:37:02;4.40;;;2.15;;
25559;SDS011;13450;49.374;8.584;2023-08-24T13:41:55;3.38;;;1.90;;
25559;SDS011;13450;49.374;8.584;2023-08-24T13:44:21;3.22;;;1.98;;
25559;SDS011;13450;49.374;8.584;2023-08-24T13:46:46;5.07;;;2.35;;
25559;SDS011;13450;49.374;8.584;2023-08-24T13:49:14;4.95;;;2.00;;
25559;SDS011;13450;49.374;8.584;2023-08-24T13:51:39;4.38;;;2.25;;
25559;SDS011;13450;49.374;8.584;2023-08-24T13:54:18;5.68;;;2.08;;
25559;SDS011;13450;49.374;8.584;2023-08-24T13:56:46;5.60;;;1.98;;
25559;SDS011;13450;49.374;8.584;2023-08-24T13:59:13;6.00;;;2.10;;
25559;SDS011;13450;49.374;8.584;2023-08-24T14:01:39;4.27;;;2.23;;
25559;SDS011;13450;49.374;8.584;2023-08-24T14:04:08;5.60;;;2.47;;
25559;SDS011;13450;49.374;8.584;2023-08-24T14:06:33;5.45;;;2.33;;
25559;SDS011;13450;49.374;8.584;2023-08-24T14:09:02;6.13;;;2.38;;
25559;SDS011;13450;49.374;8.584;2023-08-24T14:11:28;3.53;;;2.05;;
25559;SDS011;13450;49.374;8.584;2023-08-24T14:13:54;4.13;;;2.20;;
25559;SDS011;13450;49.374;8.584;2023-08-24T14:16:20;5.70;;;2.17;;
25559;SDS011;13450;49.374;8.584;2023-08-24T14:18:46;4.95;;;2.00;;
25559;SDS011;13450;49.374;8.584;2023-08-24T14:21:11;5.75;;;2.38;;
25559;SDS011;13450;49.374;8.584;2023-08-24T14:23:37;6.70;;;2.55;;
25559;SDS011;13450;49.374;8.584;2023-08-24T14:26:02;5.47;;;2.13;;
25559;SDS011;13450;49.374;8.584;2023-08-24T14:28:46;3.05;;;1.90;;
25559;SDS011;13450;49.374;8.584;2023-08-24T14:31:14;3.95;;;2.40;;
25559;SDS011;13450;49.374;8.584;2023-08-24T14:33:39;5.78;;;2.40;;
25559;SDS011;13450;49.374;8.584;2023-08-24T14:36:07;6.45;;;2.40;;
25559;SDS011;13450;49.374;8.584;2023-08-24T14:38:32;3.40;;;2.25;;
25559;SDS011;13450;49.374;8.584;2023-08-24T14:40:57;4.75;;;2.40;;
25559;SDS011;13450;49.374;8.584;2023-08-24T14:43:25;5.05;;;2.42;;
25559;SDS011;13450;49.374;8.584;2023-08-24T14:45:51;6.75;;;2.47;;
25559;SDS011;13450;49.374;8.584;2023-08-24T14:48:16;4.90;;;2.13;;
25559;SDS011;13450;49.374;8.584;2023-08-24T14:50:41;4.22;;;1.83;;
25559;SDS011;13450;49.374;8.584;2023-08-24T14:53:07;5.20;;;2.30;;
25559;SDS011;13450;49.374;8.584;2023-08-24T14:55:32;6.22;;;2.33;;
25559;SDS011;13450;49.374;8.584;2023-08-24T14:58:03;5.82;;;2.60;;
25559;SDS011;13450;49.374;8.584;2023-08-24T15:00:31;3.42;;;2.20;;
25559;SDS011;13450;49.374;8.584;2023-08-24T15:02:56;5.78;;;2.75;;
25559;SDS011;13450;49.374;8.584;2023-08-24T15:05:21;6.32;;;2.75;;
25559;SDS011;13450;49.374;8.584;2023-08-24T15:07:48;5.90;;;2.40;;
25559;SDS011;13450;49.374;8.584;2023-08-24T15:10:14;4.63;;;2.47;;
25559;SDS011;13450;49.374;8.584;2023-08-24T15:12:44;7.88;;;2.78;;
25559;SDS011;13450;49.374;8.584;2023-08-24T15:15:10;7.63;;;2.80;;
25559;SDS011;13450;49.374;8.584;2023-08-24T15:17:36;5.38;;;2.63;;
25559;SDS011;13450;49.374;8.584;2023-08-24T15:20:04;10.77;;;2.92;;
25559;SDS011;13450;49.374;8.584;2023-08-24T15:22:32;7.50;;;2.60;;
25559;SDS011;13450;49.374;8.584;2023-08-24T15:25:00;5.18;;;2.50;;
25559;SDS011;13450;49.374;8.584;2023-08-24T15:27:28;4.75;;;2.40;;
25559;SDS011;13450;49.374;8.584;2023-08-24T15:29:55;4.90;;;2.78;;
25559;SDS011;13450;49.374;8.584;2023-08-24T15:32:21;5.28;;;2.60;;
25559;SDS011;13450;49.374;8.584;2023-08-24T15:34:47;5.47;;;2.85;;
25559;SDS011;13450;49.374;8.584;2023-08-24T15:37:12;4.40;;;2.50;;
25559;SDS011;13450;49.374;8.584;2023-08-24T15:39:38;6.10;;;3.00;;
25559;SDS011;13450;49.374;8.584;2023-08-24T15:42:05;5.82;;;2.33;;
25559;SDS011;13450;49.374;8.584;2023-08-24T15:44:31;7.28;;;2.60;;
25559;SDS011;13450;49.374;8.584;2023-08-24T15:46:56;4.78;;;2.67;;
25559;SDS011;13450;49.374;8.584;2023-08-24T15:49:22;5.38;;;2.40;;
25559;SDS011;13450;49.374;8.584;2023-08-24T15:51:48;5.53;;;2.67;;
25559;SDS011;13450;49.374;8.584;2023-08-24T15:54:14;4.85;;;2.40;;
25559;SDS011;13450;49.374;8.584;2023-08-24T15:56:44;4.85;;;2.67;;
25559;SDS011;13450;49.374;8.584;2023-08-24T15:59:11;6.70;;;3.15;;
25559;SDS011;13450;49.374;8.584;2023-08-24T16:01:37;4.68;;;2.67;;
25559;SDS011;13450;49.374;8.584;2023-08-24T16:04:03;5.82;;;2.80;;
25559;SDS011;13450;49.374;8.584;2023-08-24T16:06:32;6.65;;;2.95;;
25559;SDS011;13450;49.374;8.584;2023-08-24T16:08:57;7.32;;;3.28;;
25559;SDS011;13450;49.374;8.584;2023-08-24T16:11:22;7.03;;;2.97;;
25559;SDS011;13450;49.374;8.584;2023-08-24T16:13:49;17.15;;;7.07;;
25559;SDS011;13450;49.374;8.584;2023-08-24T16:16:15;4.63;;;2.95;;